Time;durP1;ratioP1;P1;durP2;ratioP2;P2;SDS_P1;SDS_P2;PMS_P1;PMS_P2;Temp;Humidity;BMP_temperature;BMP_pressure;BME280_temperature;BME280_humidity;BME280_pressure;Samples;Min_cycle;Max_cycle;Signal;HPM_P1;HPM_P2
2022/06/01 00:01:49;;;;;;;30.55;19.20;;;;;;;;;;5073413;28;20052;-67
2022/06/01 00:04:17;;;;;;;21.15;16.50;;;;;;;;;;5068944;28;20060;-67
2022/06/01 00:06:45;;;;;;;16.67;13.98;;;;;;;;;;5072396;28;20052;-67
2022/06/01 00:09:13;;;;;;;19.95;14.60;;;;;;;;;;5070721;28;20040;-67
2022/06/01 00:11:40;;;;;;;18.50;14.88;;;;;;;;;;5071396;28;20430;-67
2022/06/01 00:14:07;;;;;;;18.25;13.82;;;;;;;;;;5073061;28;20093;-67
2022/06/01 00:16:35;;;;;;;16.80;14.95;;;;;;;;;;5070679;28;20061;-67
2022/06/01 00:19:02;;;;;;;18.55;13.25;;;;;;;;;;5069556;28;20110;-67
2022/06/01 00:21:29;;;;;;;15.52;13.63;;;;;;;;;;5071386;28;20110;-67
2022/06/01 00:23:58;;;;;;;15.60;13.63;;;;;;;;;;5072264;28;20051;-67
2022/06/01 00:26:25;;;;;;;18.08;14.18;;;;;;;;;;5068174;28;20117;-67
2022/06/01 00:28:52;;;;;;;17.08;13.95;;;;;;;;;;5073690;28;20048;-67
2022/06/01 00:31:19;;;;;;;17.60;14.77;;;;;;;;;;5070596;28;20097;-67
2022/06/01 00:33:46;;;;;;;24.50;18.73;;;;;;;;;;5070999;28;20053;-67
2022/06/01 00:36:13;;;;;;;18.58;14.68;;;;;;;;;;5070408;28;20056;-67
2022/06/01 00:38:41;;;;;;;17.98;15.32;;;;;;;;;;5070095;28;20051;-67
2022/06/01 00:41:09;;;;;;;15.95;14.25;;;;;;;;;;5071007;28;20051;-67
2022/06/01 00:43:42;;;;;;;20.33;16.48;;;;;;;;;;5070605;28;20846;-67
2022/06/01 00:46:10;;;;;;;21.00;15.27;;;;;;;;;;5071407;28;20052;-67
2022/06/01 00:48:39;;;;;;;19.95;14.57;;;;;;;;;;5071942;28;20515;-67
2022/06/01 00:51:07;;;;;;;24.55;14.25;;;;;;;;;;5070935;28;20406;-67
2022/06/01 00:53:36;;;;;;;18.67;14.07;;;;;;;;;;5072551;28;20453;-67
2022/06/01 00:56:05;;;;;;;15.55;13.55;;;;;;;;;;5070546;28;20105;-67
2022/06/01 00:58:35;;;;;;;17.77;14.30;;;;;;;;;;5069847;28;20070;-67
2022/06/01 01:01:02;;;;;;;18.48;15.00;;;;;;;;;;5069171;28;20414;-67
2022/06/01 01:03:33;;;;;;;18.67;14.93;;;;;;;;;;5070868;28;20101;-67
2022/06/01 01:06:02;;;;;;;27.83;19.45;;;;;;;;;;5071621;28;20052;-67
2022/06/01 01:08:30;;;;;;;33.08;23.17;;;;;;;;;;5072026;28;20452;-67
2022/06/01 01:10:57;;;;;;;18.48;16.45;;;;;;;;;;5071535;28;20083;-67
2022/06/01 01:13:24;;;;;;;21.52;18.67;;;;;;;;;;5069619;28;20052;-67
2022/06/01 01:15:55;;;;;;;17.20;15.23;;;;;;;;;;5070634;28;20097;-67
2022/06/01 01:18:23;;;;;;;19.88;16.58;;;;;;;;;;5069486;28;20056;-67
2022/06/01 01:20:57;;;;;;;16.83;14.63;;;;;;;;;;5069990;28;20105;-67
2022/06/01 01:23:29;;;;;;;18.33;15.75;;;;;;;;;;5070896;28;20102;-67
2022/06/01 01:25:58;;;;;;;20.48;18.25;;;;;;;;;;5070998;28;20059;-67
2022/06/01 01:28:25;;;;;;;23.50;18.40;;;;;;;;;;5069787;28;20141;-67
2022/06/01 01:30:56;;;;;;;20.55;17.00;;;;;;;;;;5074510;28;20060;-67
2022/06/01 01:33:24;;;;;;;19.17;15.77;;;;;;;;;;5072166;28;20121;-67
2022/06/01 01:35:52;;;;;;;18.20;16.35;;;;;;;;;;5067410;28;20125;-67
2022/06/01 01:38:25;;;;;;;21.25;16.40;;;;;;;;;;5070574;28;20051;-67
2022/06/01 01:41:04;;;;;;;26.63;20.70;;;;;;;;;;5069152;28;20056;-67
2022/06/01 01:43:32;;;;;;;26.75;21.58;;;;;;;;;;5068651;28;20130;-67
2022/06/01 01:45:59;;;;;;;26.63;22.88;;;;;;;;;;5071631;28;20048;-67
2022/06/01 01:48:26;;;;;;;25.60;21.38;;;;;;;;;;5071557;28;20105;-67
2022/06/01 01:50:54;;;;;;;20.90;18.70;;;;;;;;;;5069810;28;20056;-67
2022/06/01 01:53:22;;;;;;;26.20;20.80;;;;;;;;;;5067466;28;20127;-67
2022/06/01 01:55:54;;;;;;;29.77;22.70;;;;;;;;;;5069760;28;20055;-67
2022/06/01 01:58:29;;;;;;;41.15;23.27;;;;;;;;;;5072706;28;20117;-67
2022/06/01 02:00:59;;;;;;;32.33;24.77;;;;;;;;;;5071018;28;20043;-67
2022/06/01 02:03:28;;;;;;;24.88;21.65;;;;;;;;;;5074593;28;20060;-67
2022/06/01 02:06:06;;;;;;;27.38;22.88;;;;;;;;;;5075911;28;20105;-67
2022/06/01 02:08:35;;;;;;;35.97;23.80;;;;;;;;;;5074840;28;20048;-67
2022/06/01 02:13:53;;;;;;;40.28;23.02;;;;;;;;;;5072316;28;20050;-67
2022/06/01 02:16:21;;;;;;;35.03;23.05;;;;;;;;;;5074164;28;20056;-67
2022/06/01 02:18:51;;;;;;;30.17;22.88;;;;;;;;;;5074054;28;20651;-67
2022/06/01 02:21:20;;;;;;;30.30;24.23;;;;;;;;;;5074109;28;20052;-67
2022/06/01 02:23:49;;;;;;;29.90;24.08;;;;;;;;;;5073959;28;20117;-67
2022/06/01 02:26:16;;;;;;;38.03;26.33;;;;;;;;;;5071791;28;20048;-67
2022/06/01 02:28:46;;;;;;;29.15;21.98;;;;;;;;;;5074568;28;20064;-67
2022/06/01 02:31:15;;;;;;;33.17;24.60;;;;;;;;;;5069980;28;20056;-67
2022/06/01 02:33:44;;;;;;;32.03;25.02;;;;;;;;;;5074718;28;20044;-67
2022/06/01 02:36:14;;;;;;;31.38;25.48;;;;;;;;;;5072416;28;20048;-67
2022/06/01 02:38:43;;;;;;;30.52;23.88;;;;;;;;;;5072823;28;20043;-67
2022/06/01 02:42:25;;;;;;;33.70;24.75;;;;;;;;;;5072391;28;20098;-67
2022/06/01 02:43:58;;;;;;;35.03;26.85;;;;;;;;;;5071415;28;20106;-67
2022/06/01 02:46:26;;;;;;;31.60;25.08;;;;;;;;;;5072552;28;20121;-67
2022/06/01 02:48:55;;;;;;;31.08;25.40;;;;;;;;;;5075627;28;20051;-67
2022/06/01 02:51:24;;;;;;;34.33;25.75;;;;;;;;;;5074420;28;20495;-67
2022/06/01 02:53:51;;;;;;;29.83;24.17;;;;;;;;;;5073427;28;20165;-67
2022/06/01 02:56:18;;;;;;;38.25;28.48;;;;;;;;;;5075844;28;20048;-67
2022/06/01 02:58:45;;;;;;;43.58;28.42;;;;;;;;;;5077351;28;20048;-67
2022/06/01 03:01:12;;;;;;;33.20;27.25;;;;;;;;;;5074735;28;20535;-67
2022/06/01 03:03:41;;;;;;;41.28;28.67;;;;;;;;;;5076994;28;20056;-67
2022/06/01 03:06:09;;;;;;;38.72;27.88;;;;;;;;;;5074396;28;20399;-67
2022/06/01 03:08:36;;;;;;;26.20;21.88;;;;;;;;;;5075802;28;20052;-67
2022/06/01 03:11:04;;;;;;;30.48;24.80;;;;;;;;;;5072343;28;20045;-67
2022/06/01 03:13:31;;;;;;;33.55;25.88;;;;;;;;;;5074339;28;20117;-67
2022/06/01 03:15:58;;;;;;;41.25;31.02;;;;;;;;;;5072689;28;20129;-67
2022/06/01 03:18:25;;;;;;;33.47;25.38;;;;;;;;;;5075592;28;20060;-67
2022/06/01 03:20:54;;;;;;;32.28;25.98;;;;;;;;;;5071556;28;20117;-67
2022/06/01 03:23:21;;;;;;;40.70;29.60;;;;;;;;;;5072933;28;20059;-67
2022/06/01 03:25:48;;;;;;;38.58;28.85;;;;;;;;;;5072677;28;20109;-67
2022/06/01 03:28:16;;;;;;;41.45;29.05;;;;;;;;;;5072877;28;20065;-67
2022/06/01 03:30:43;;;;;;;36.67;28.30;;;;;;;;;;5074469;28;20048;-67
2022/06/01 03:33:10;;;;;;;40.95;30.92;;;;;;;;;;5073127;28;20067;-67
2022/06/01 03:35:38;;;;;;;27.15;22.98;;;;;;;;;;5074137;28;20479;-67
2022/06/01 03:38:07;;;;;;;33.03;27.63;;;;;;;;;;5071745;28;20109;-67
2022/06/01 03:40:34;;;;;;;34.85;27.85;;;;;;;;;;5069811;28;20098;-67
2022/06/01 03:43:02;;;;;;;31.10;24.27;;;;;;;;;;5074148;28;20053;-67
2022/06/01 03:48:20;;;;;;;40.33;29.50;;;;;;;;;;5058329;28;20524;-67
2022/06/01 03:50:48;;;;;;;46.50;32.15;;;;;;;;;;5073330;28;20052;-67
2022/06/01 03:53:16;;;;;;;34.85;24.75;;;;;;;;;;5076342;28;20060;-67
2022/06/01 03:55:44;;;;;;;33.05;27.25;;;;;;;;;;5072208;28;20051;-67
2022/06/01 03:58:13;;;;;;;34.03;24.80;;;;;;;;;;5072129;28;20129;-67
2022/06/01 04:00:41;;;;;;;30.55;23.50;;;;;;;;;;5069194;28;21229;-67
2022/06/01 04:03:08;;;;;;;37.03;27.85;;;;;;;;;;5073238;28;20054;-67
2022/06/01 04:05:36;;;;;;;32.50;24.90;;;;;;;;;;5069934;28;20052;-67
2022/06/01 04:08:03;;;;;;;29.35;23.25;;;;;;;;;;5072187;28;20052;-67
2022/06/01 04:10:31;;;;;;;23.92;20.33;;;;;;;;;;5071651;28;20136;-67
2022/06/01 04:12:59;;;;;;;23.90;20.17;;;;;;;;;;5074056;28;20052;-67
2022/06/01 04:15:26;;;;;;;17.73;15.68;;;;;;;;;;5075562;28;20426;-67
2022/06/01 04:17:53;;;;;;;20.95;15.60;;;;;;;;;;5072159;28;20703;-67
2022/06/01 04:20:21;;;;;;;20.38;15.30;;;;;;;;;;5072221;28;20040;-67
2022/06/01 04:22:48;;;;;;;26.70;19.02;;;;;;;;;;5073427;28;20102;-67
2022/06/01 04:25:16;;;;;;;26.75;19.27;;;;;;;;;;5069547;28;20048;-67
2022/06/01 04:27:45;;;;;;;23.83;17.10;;;;;;;;;;5070674;28;20080;-67
2022/06/01 04:30:15;;;;;;;26.55;20.35;;;;;;;;;;5073619;28;20573;-67
2022/06/01 04:32:44;;;;;;;28.35;20.27;;;;;;;;;;5070056;28;20055;-67
2022/06/01 04:35:11;;;;;;;30.23;22.35;;;;;;;;;;5078788;28;20052;-67
2022/06/01 04:37:38;;;;;;;25.52;19.35;;;;;;;;;;5076268;28;20102;-67
2022/06/01 04:40:06;;;;;;;20.45;15.00;;;;;;;;;;5077093;28;20043;-67
2022/06/01 04:42:34;;;;;;;17.48;14.82;;;;;;;;;;5069532;28;20108;-67
2022/06/01 04:45:03;;;;;;;21.92;16.67;;;;;;;;;;5073445;28;20040;-67
2022/06/01 04:47:30;;;;;;;18.17;12.55;;;;;;;;;;5067581;28;20040;-67
2022/06/01 04:49:58;;;;;;;18.27;14.02;;;;;;;;;;5074574;28;20041;-66
2022/06/01 04:52:25;;;;;;;19.15;16.02;;;;;;;;;;5067091;28;20105;-66
2022/06/01 04:54:52;;;;;;;15.00;11.50;;;;;;;;;;5073111;28;20040;-66
2022/06/01 04:57:20;;;;;;;21.85;14.55;;;;;;;;;;5068846;28;20053;-66
2022/06/01 04:59:47;;;;;;;19.42;12.57;;;;;;;;;;5069138;28;20553;-66
2022/06/01 05:02:16;;;;;;;15.82;10.95;;;;;;;;;;5068512;28;20048;-66
2022/06/01 05:04:43;;;;;;;10.73;9.45;;;;;;;;;;5069552;28;20063;-66
2022/06/01 05:07:11;;;;;;;11.70;9.15;;;;;;;;;;5068780;28;20491;-66
2022/06/01 05:09:38;;;;;;;14.35;10.15;;;;;;;;;;5072042;28;20167;-66
2022/06/01 05:12:05;;;;;;;18.70;12.13;;;;;;;;;;5071838;28;20052;-66
2022/06/01 05:14:33;;;;;;;10.77;8.18;;;;;;;;;;5068673;28;20161;-66
2022/06/01 05:17:00;;;;;;;10.27;7.68;;;;;;;;;;5068450;28;20055;-66
2022/06/01 05:19:29;;;;;;;10.63;9.02;;;;;;;;;;5072548;28;20075;-66
2022/06/01 05:21:58;;;;;;;21.70;13.07;;;;;;;;;;5068421;28;20098;-66
2022/06/01 05:24:25;;;;;;;10.35;8.65;;;;;;;;;;5071892;28;20448;-66
2022/06/01 05:26:52;;;;;;;19.42;13.52;;;;;;;;;;5071491;28;20141;-66
2022/06/01 05:29:19;;;;;;;14.00;11.15;;;;;;;;;;5071228;28;20052;-66
2022/06/01 05:31:47;;;;;;;16.75;11.35;;;;;;;;;;5068229;28;20044;-66
2022/06/01 05:34:14;;;;;;;14.10;9.63;;;;;;;;;;5069942;28;20052;-66
2022/06/01 05:36:42;;;;;;;12.57;9.98;;;;;;;;;;5072520;28;20052;-66
2022/06/01 05:39:10;;;;;;;15.77;12.48;;;;;;;;;;5070842;28;20048;-66
2022/06/01 05:41:37;;;;;;;20.17;13.35;;;;;;;;;;5080573;28;20511;-66
2022/06/01 05:44:04;;;;;;;14.52;11.48;;;;;;;;;;5078592;28;20063;-66
2022/06/01 05:46:35;;;;;;;18.42;12.10;;;;;;;;;;5082537;28;20048;-66
2022/06/01 05:49:02;;;;;;;14.95;10.95;;;;;;;;;;5081251;28;20043;-66
2022/06/01 05:51:29;;;;;;;10.48;7.90;;;;;;;;;;5078434;28;20056;-66
2022/06/01 05:53:58;;;;;;;14.10;8.80;;;;;;;;;;5076008;28;20121;-66
2022/06/01 05:56:25;;;;;;;12.93;8.20;;;;;;;;;;5074417;28;20523;-66
2022/06/01 05:58:52;;;;;;;14.63;7.78;;;;;;;;;;5080755;28;20398;-66
2022/06/01 06:01:22;;;;;;;14.75;9.88;;;;;;;;;;5076547;28;20792;-66
2022/06/01 06:03:49;;;;;;;15.07;8.40;;;;;;;;;;5074451;28;20818;-66
2022/06/01 06:06:16;;;;;;;19.27;10.15;;;;;;;;;;5082731;28;20084;-66
2022/06/01 06:08:46;;;;;;;12.55;7.47;;;;;;;;;;5094346;28;20047;-66
2022/06/01 06:11:15;;;;;;;14.13;6.10;;;;;;;;;;5077838;28;20048;-66
2022/06/01 06:13:42;;;;;;;12.93;7.18;;;;;;;;;;5087809;28;20112;-66
2022/06/01 06:16:10;;;;;;;19.67;7.30;;;;;;;;;;5078906;28;20055;-66
2022/06/01 06:18:37;;;;;;;13.85;8.52;;;;;;;;;;5081691;28;20044;-66
2022/06/01 06:21:04;;;;;;;14.20;7.05;;;;;;;;;;5077546;28;20048;-66
2022/06/01 06:23:32;;;;;;;16.55;6.63;;;;;;;;;;5073337;28;20503;-66
2022/06/01 06:25:59;;;;;;;11.75;4.03;;;;;;;;;;5077783;28;20052;-66
2022/06/01 06:28:28;;;;;;;10.15;3.83;;;;;;;;;;5074913;28;20052;-66
2022/06/01 06:30:55;;;;;;;15.98;5.65;;;;;;;;;;5077520;28;20052;-66
2022/06/01 06:33:22;;;;;;;10.55;4.32;;;;;;;;;;5076460;28;20149;-66
2022/06/01 06:35:57;;;;;;;10.90;3.95;;;;;;;;;;5078007;28;20121;-66
2022/06/01 06:38:26;;;;;;;9.63;3.58;;;;;;;;;;5071570;28;20123;-66
2022/06/01 06:40:54;;;;;;;11.02;2.47;;;;;;;;;;5077055;28;20055;-67
2022/06/01 06:43:21;;;;;;;7.68;3.03;;;;;;;;;;5074130;28;20051;-67
2022/06/01 06:45:51;;;;;;;5.70;2.70;;;;;;;;;;5074787;28;20053;-67
2022/06/01 06:48:18;;;;;;;12.77;2.53;;;;;;;;;;5077601;28;20052;-67
2022/06/01 06:50:45;;;;;;;4.95;1.70;;;;;;;;;;5074249;28;20105;-67
2022/06/01 06:53:12;;;;;;;5.05;1.80;;;;;;;;;;5072773;28;20147;-67
2022/06/01 06:55:40;;;;;;;5.18;1.30;;;;;;;;;;5073258;28;20106;-67
2022/06/01 06:58:08;;;;;;;3.70;1.20;;;;;;;;;;5072119;28;21738;-67
2022/06/01 07:00:35;;;;;;;3.42;1.25;;;;;;;;;;5077511;28;20055;-67
2022/06/01 07:03:04;;;;;;;3.78;2.15;;;;;;;;;;5073772;28;20056;-67
2022/06/01 07:08:16;;;;;;;3.40;2.00;;;;;;;;;;5077418;28;20079;-67
2022/06/01 07:10:43;;;;;;;5.65;3.55;;;;;;;;;;5081642;28;20044;-67
2022/06/01 07:13:11;;;;;;;6.75;3.40;;;;;;;;;;5080479;28;20573;-67
2022/06/01 07:15:38;;;;;;;6.93;5.28;;;;;;;;;;5078407;28;20457;-67
2022/06/01 07:18:07;;;;;;;6.70;5.00;;;;;;;;;;5075189;28;20055;-67
2022/06/01 07:20:34;;;;;;;8.15;5.50;;;;;;;;;;5075997;28;20143;-67
2022/06/01 07:23:02;;;;;;;10.38;7.85;;;;;;;;;;5077129;28;20040;-67
2022/06/01 07:25:29;;;;;;;13.57;7.45;;;;;;;;;;5072729;28;20673;-67
2022/06/01 07:27:57;;;;;;;11.02;6.80;;;;;;;;;;5075019;28;20044;-67
2022/06/01 07:30:24;;;;;;;8.57;6.18;;;;;;;;;;5077716;28;20048;-67
2022/06/01 07:32:52;;;;;;;7.72;6.47;;;;;;;;;;5072654;28;20671;-67
2022/06/01 07:35:20;;;;;;;9.40;7.10;;;;;;;;;;5077685;28;20083;-67
2022/06/01 07:43:21;;;;;;;9.20;5.60;;;;;;;;;;5077812;28;20072;-67
2022/06/01 07:45:49;;;;;;;10.25;6.80;;;;;;;;;;5080695;28;20055;-67
2022/06/01 07:48:17;;;;;;;8.75;6.75;;;;;;;;;;5083416;28;20113;-67
2022/06/01 07:50:46;;;;;;;8.57;7.13;;;;;;;;;;5076298;28;20440;-67
2022/06/01 07:53:13;;;;;;;7.47;5.32;;;;;;;;;;5074863;28;20040;-67
2022/06/01 07:55:41;;;;;;;9.63;6.63;;;;;;;;;;5076416;28;20052;-67
2022/06/01 07:58:09;;;;;;;7.63;6.82;;;;;;;;;;5068346;28;20487;-67
2022/06/01 08:00:37;;;;;;;11.60;7.72;;;;;;;;;;5074220;28;20048;-67
2022/06/01 08:03:04;;;;;;;6.07;5.18;;;;;;;;;;5074067;28;20048;-67
2022/06/01 08:05:33;;;;;;;6.53;5.82;;;;;;;;;;5072326;28;20046;-67
2022/06/01 08:08:01;;;;;;;9.65;6.43;;;;;;;;;;5077512;28;20083;-67
2022/06/01 08:10:29;;;;;;;9.75;5.32;;;;;;;;;;5077021;28;20170;-67
2022/06/01 08:13:07;;;;;;;5.55;4.05;;;;;;;;;;5072400;28;20048;-67
2022/06/01 08:15:34;;;;;;;5.90;4.15;;;;;;;;;;5072485;28;20070;-67
2022/06/01 08:18:02;;;;;;;5.15;3.60;;;;;;;;;;5066961;28;20056;-67
2022/06/01 08:20:29;;;;;;;4.22;3.15;;;;;;;;;;5069597;28;20606;-67
2022/06/01 08:22:57;;;;;;;5.97;2.50;;;;;;;;;;5075635;28;20044;-67
2022/06/01 08:25:25;;;;;;;2.10;1.90;;;;;;;;;;5075313;28;20507;-67
2022/06/01 08:27:53;;;;;;;2.20;1.80;;;;;;;;;;5069564;28;20991;-67
2022/06/01 08:30:23;;;;;;;2.30;2.00;;;;;;;;;;5074953;28;20044;-67
2022/06/01 08:32:50;;;;;;;2.58;1.75;;;;;;;;;;5073476;28;20052;-67
2022/06/01 08:35:19;;;;;;;2.90;1.40;;;;;;;;;;5070548;28;20045;-67
2022/06/01 08:37:46;;;;;;;2.05;1.00;;;;;;;;;;5074516;28;20049;-67
2022/06/01 08:40:15;;;;;;;3.25;1.65;;;;;;;;;;5074540;28;20628;-67
2022/06/01 08:42:46;;;;;;;2.22;1.30;;;;;;;;;;5074785;28;20095;-67
2022/06/01 08:45:14;;;;;;;2.42;1.75;;;;;;;;;;5068708;28;20059;-67
2022/06/01 08:47:43;;;;;;;3.30;1.52;;;;;;;;;;5073671;28;20047;-67
2022/06/01 08:50:14;;;;;;;3.60;1.60;;;;;;;;;;5075916;28;20059;-67
2022/06/01 08:52:41;;;;;;;2.42;1.10;;;;;;;;;;5075571;28;20483;-67
2022/06/01 08:55:09;;;;;;;1.33;0.82;;;;;;;;;;5072724;28;20055;-67
2022/06/01 08:57:40;;;;;;;3.35;0.90;;;;;;;;;;5073310;28;20093;-67
2022/06/01 09:00:10;;;;;;;1.70;0.90;;;;;;;;;;5080509;28;20056;-67
2022/06/01 09:02:43;;;;;;;2.78;1.13;;;;;;;;;;5080570;28;20044;-67
2022/06/01 09:05:13;;;;;;;2.35;1.60;;;;;;;;;;5067980;28;20059;-67
2022/06/01 09:07:43;;;;;;;2.65;1.58;;;;;;;;;;5070105;28;20048;-67
2022/06/01 09:10:17;;;;;;;3.10;1.40;;;;;;;;;;5072487;28;20395;-67
2022/06/01 09:12:45;;;;;;;2.53;1.10;;;;;;;;;;5079264;28;20044;-67
2022/06/01 09:15:20;;;;;;;1.67;1.17;;;;;;;;;;5073536;28;20048;-67
2022/06/01 09:17:48;;;;;;;2.90;1.33;;;;;;;;;;5070880;28;20055;-68
2022/06/01 09:23:01;;;;;;;3.08;1.23;;;;;;;;;;5070869;28;21177;-68
2022/06/01 09:25:32;;;;;;;1.83;1.10;;;;;;;;;;5072479;28;20471;-68
2022/06/01 09:28:00;;;;;;;3.35;1.08;;;;;;;;;;5073070;28;20533;-68
2022/06/01 09:30:34;;;;;;;1.92;0.90;;;;;;;;;;5082757;28;20399;-68
2022/06/01 09:33:06;;;;;;;1.67;0.90;;;;;;;;;;5074469;28;20044;-68
2022/06/01 09:35:36;;;;;;;2.33;1.63;;;;;;;;;;5079918;28;20059;-68
2022/06/01 09:38:04;;;;;;;2.95;1.50;;;;;;;;;;5075435;28;20443;-68
2022/06/01 09:40:32;;;;;;;2.55;1.98;;;;;;;;;;5073285;28;20074;-68
2022/06/01 09:43:00;;;;;;;4.20;1.80;;;;;;;;;;5075417;28;20044;-68
2022/06/01 09:45:32;;;;;;;4.40;2.10;;;;;;;;;;5075610;28;20071;-68
2022/06/01 09:48:11;;;;;;;4.30;2.28;;;;;;;;;;5075119;28;20073;-68
2022/06/01 09:50:40;;;;;;;2.25;1.70;;;;;;;;;;5073880;28;20044;-68
2022/06/01 09:53:14;;;;;;;3.25;2.08;;;;;;;;;;5075016;28;20123;-68
2022/06/01 09:55:51;;;;;;;3.15;2.30;;;;;;;;;;5074723;28;20052;-68
2022/06/01 10:06:05;;;;;;;4.22;1.98;;;;;;;;;;5075645;28;20044;-68
2022/06/01 10:06:51;;;;;;;2.80;1.25;;;;;;;;;;5043787;28;20048;-68
2022/06/01 10:09:22;;;;;;;3.15;1.30;;;;;;;;;;5074485;28;20070;-68
2022/06/01 10:11:51;;;;;;;1.75;1.15;;;;;;;;;;5070131;28;20624;-68
2022/06/01 10:14:22;;;;;;;2.40;1.27;;;;;;;;;;5076051;28;20503;-68
2022/06/01 10:17:05;;;;;;;1.73;0.90;;;;;;;;;;5067858;28;20050;-68
2022/06/01 10:19:34;;;;;;;3.00;1.20;;;;;;;;;;5068677;28;20835;-68
2022/06/01 10:22:04;;;;;;;3.67;1.30;;;;;;;;;;5075940;28;20056;-68
2022/06/01 10:24:35;;;;;;;1.77;1.30;;;;;;;;;;5074821;28;20045;-68
2022/06/01 10:27:03;;;;;;;2.50;1.38;;;;;;;;;;5077043;28;20051;-68
2022/06/01 10:29:33;;;;;;;2.13;1.20;;;;;;;;;;5074480;28;20064;-68
2022/06/01 10:32:04;;;;;;;2.95;1.38;;;;;;;;;;5073121;28;20048;-68
2022/06/01 10:34:34;;;;;;;2.38;1.05;;;;;;;;;;5075706;28;20047;-68
2022/06/01 10:37:04;;;;;;;3.53;1.00;;;;;;;;;;5075297;28;20116;-68
2022/06/01 10:39:33;;;;;;;1.50;1.20;;;;;;;;;;5075668;28;20057;-68
2022/06/01 10:42:05;;;;;;;3.50;1.65;;;;;;;;;;5074198;28;20060;-68
2022/06/01 10:44:36;;;;;;;4.05;1.58;;;;;;;;;;5081958;28;20044;-66
2022/06/01 10:47:07;;;;;;;1.67;1.45;;;;;;;;;;5072959;28;20509;-66
2022/06/01 10:49:38;;;;;;;2.42;1.00;;;;;;;;;;5075596;28;20449;-65
2022/06/01 10:52:11;;;;;;;3.63;1.30;;;;;;;;;;5074931;28;20060;-65
2022/06/01 10:54:42;;;;;;;2.58;1.30;;;;;;;;;;5075564;28;20093;-65
2022/06/01 10:57:10;;;;;;;2.08;1.10;;;;;;;;;;5071741;28;20057;-65
2022/06/01 10:59:39;;;;;;;1.08;0.88;;;;;;;;;;5077003;28;20048;-65
2022/06/01 11:02:11;;;;;;;1.48;0.90;;;;;;;;;;5072495;28;20111;-65
2022/06/01 11:04:46;;;;;;;2.38;1.05;;;;;;;;;;5075379;28;20052;-65
2022/06/01 11:07:22;;;;;;;1.85;1.20;;;;;;;;;;5078180;28;20049;-65
2022/06/01 11:09:55;;;;;;;12.98;1.30;;;;;;;;;;5077399;28;20471;-65
2022/06/01 11:12:28;;;;;;;2.40;1.30;;;;;;;;;;5074378;28;20052;-65
2022/06/01 11:15:02;;;;;;;3.50;1.58;;;;;;;;;;5073593;28;20052;-65
2022/06/01 11:17:35;;;;;;;4.78;1.75;;;;;;;;;;5072597;28;20109;-65
2022/06/01 11:20:06;;;;;;;2.95;1.50;;;;;;;;;;5072068;28;20059;-65
2022/06/01 11:22:40;;;;;;;2.33;1.25;;;;;;;;;;5074243;28;20045;-65
2022/06/01 11:25:14;;;;;;;2.35;1.60;;;;;;;;;;5076207;28;20483;-65
2022/06/01 11:27:46;;;;;;;3.83;1.80;;;;;;;;;;5075763;28;21136;-65
2022/06/01 11:30:19;;;;;;;2.65;1.40;;;;;;;;;;5073797;28;20044;-65
2022/06/01 11:32:52;;;;;;;4.15;1.85;;;;;;;;;;5073105;28;20126;-65
2022/06/01 11:35:21;;;;;;;3.83;1.50;;;;;;;;;;5073969;28;20052;-65
2022/06/01 11:37:52;;;;;;;2.53;1.45;;;;;;;;;;5075072;28;20057;-65
2022/06/01 11:40:21;;;;;;;5.40;1.90;;;;;;;;;;5074955;28;20044;-65
2022/06/01 11:42:54;;;;;;;4.40;1.90;;;;;;;;;;5070531;28;20052;-65
2022/06/01 11:45:23;;;;;;;3.10;1.58;;;;;;;;;;5072191;28;20052;-65
2022/06/01 11:47:54;;;;;;;7.20;2.05;;;;;;;;;;5073030;28;20047;-65
2022/06/01 11:50:25;;;;;;;2.45;1.45;;;;;;;;;;5074838;28;20056;-65
2022/06/01 11:52:56;;;;;;;6.07;1.60;;;;;;;;;;5077641;28;20137;-65
2022/06/01 11:55:41;;;;;;;2.97;2.35;;;;;;;;;;5072535;28;20044;-65
2022/06/01 11:58:10;;;;;;;5.03;2.60;;;;;;;;;;5076616;28;20083;-65
2022/06/01 12:00:41;;;;;;;3.35;2.65;;;;;;;;;;5071267;28;20067;-65
2022/06/01 12:03:24;;;;;;;3.95;2.65;;;;;;;;;;5074670;28;20525;-66
2022/06/01 12:06:03;;;;;;;5.63;3.30;;;;;;;;;;5073295;28;20144;-65
2022/06/01 12:08:33;;;;;;;5.18;3.35;;;;;;;;;;5076017;28;20063;-65
2022/06/01 12:11:03;;;;;;;4.45;3.10;;;;;;;;;;5079934;28;20044;-66
2022/06/01 12:13:32;;;;;;;4.88;3.03;;;;;;;;;;5079687;28;20845;-66
2022/06/01 12:16:09;;;;;;;4.65;2.88;;;;;;;;;;5081465;28;20527;-65
2022/06/01 12:18:37;;;;;;;4.05;3.08;;;;;;;;;;5080097;28;20563;-65
2022/06/01 12:21:29;;;;;;;4.35;3.15;;;;;;;;;;5072987;28;20048;-65
2022/06/01 12:29:33;;;;;;;4.93;3.42;;;;;;;;;;5075186;28;20486;-65
2022/06/01 12:32:13;;;;;;;4.72;3.30;;;;;;;;;;5071761;28;20040;-65
2022/06/01 12:35:02;;;;;;;3.75;3.03;;;;;;;;;;5072961;28;20089;-65
2022/06/01 12:37:34;;;;;;;5.10;4.00;;;;;;;;;;5067792;28;20051;-65
2022/06/01 12:40:04;;;;;;;5.07;3.58;;;;;;;;;;5077371;28;20082;-65
2022/06/01 12:42:32;;;;;;;3.85;3.40;;;;;;;;;;5071456;28;20140;-65
2022/06/01 12:45:01;;;;;;;5.30;3.40;;;;;;;;;;5068310;28;20049;-65
2022/06/01 12:47:31;;;;;;;7.65;4.40;;;;;;;;;;5069197;28;20477;-65
2022/06/01 12:49:58;;;;;;;5.40;4.20;;;;;;;;;;5072497;28;20055;-65
2022/06/01 12:52:26;;;;;;;4.65;3.28;;;;;;;;;;5074837;28;20522;-65
2022/06/01 12:54:57;;;;;;;5.15;3.58;;;;;;;;;;5079016;28;20063;-66
2022/06/01 12:57:26;;;;;;;6.13;3.60;;;;;;;;;;5077095;28;20176;-65
2022/06/01 12:59:57;;;;;;;6.10;3.28;;;;;;;;;;5072810;28;20055;-65
2022/06/01 13:02:24;;;;;;;5.57;3.55;;;;;;;;;;5075635;28;20123;-65
2022/06/01 13:04:53;;;;;;;5.03;3.20;;;;;;;;;;5076899;28;20133;-65
2022/06/01 13:07:23;;;;;;;3.95;2.60;;;;;;;;;;5076486;28;20145;-66
2022/06/01 13:10:00;;;;;;;5.70;2.95;;;;;;;;;;5071442;28;20048;-65
2022/06/01 13:12:30;;;;;;;4.45;2.58;;;;;;;;;;5073946;28;20060;-65
2022/06/01 13:15:07;;;;;;;5.88;2.95;;;;;;;;;;5073524;28;20047;-65
2022/06/01 13:17:34;;;;;;;4.43;2.70;;;;;;;;;;5071643;28;20044;-66
2022/06/01 13:20:04;;;;;;;5.30;2.30;;;;;;;;;;5072047;28;20101;-66
2022/06/01 13:22:35;;;;;;;1.55;0.88;;;;;;;;;;5074599;28;20060;-66
2022/06/01 13:25:06;;;;;;;2.22;0.70;;;;;;;;;;5079859;28;20105;-66
2022/06/01 13:27:34;;;;;;;1.25;0.63;;;;;;;;;;5076812;28;20123;-66
2022/06/01 13:30:02;;;;;;;2.08;0.82;;;;;;;;;;5073586;28;20415;-66
2022/06/01 13:32:31;;;;;;;2.50;1.27;;;;;;;;;;5079641;28;20388;-66
2022/06/01 13:35:03;;;;;;;2.05;0.85;;;;;;;;;;5077770;28;20055;-66
2022/06/01 13:37:31;;;;;;;5.72;1.23;;;;;;;;;;5079110;28;20066;-66
2022/06/01 13:40:00;;;;;;;3.92;1.30;;;;;;;;;;5071563;28;20052;-66
2022/06/01 13:42:33;;;;;;;2.10;1.30;;;;;;;;;;5077421;28;20329;-66
2022/06/01 13:45:10;;;;;;;2.90;1.30;;;;;;;;;;5077390;28;20134;-66
2022/06/01 13:47:40;;;;;;;2.42;1.13;;;;;;;;;;5072289;28;20056;-66
2022/06/01 13:50:10;;;;;;;4.40;1.40;;;;;;;;;;5077305;28;20381;-66
2022/06/01 13:52:40;;;;;;;1.67;1.10;;;;;;;;;;5073585;28;20048;-66
2022/06/01 13:55:15;;;;;;;2.05;1.20;;;;;;;;;;5076464;28;20165;-65
2022/06/01 13:57:49;;;;;;;3.17;1.40;;;;;;;;;;5080330;28;20045;-65
2022/06/01 14:00:21;;;;;;;9.40;1.98;;;;;;;;;;5076550;28;20131;-65
2022/06/01 14:02:53;;;;;;;2.63;1.67;;;;;;;;;;5079301;28;20040;-65
2022/06/01 14:05:21;;;;;;;5.03;1.95;;;;;;;;;;5083939;28;20778;-65
2022/06/01 14:07:49;;;;;;;3.22;1.60;;;;;;;;;;5079832;28;20059;-65
2022/06/01 14:10:17;;;;;;;4.93;1.70;;;;;;;;;;5078271;28;20044;-65
2022/06/01 14:12:47;;;;;;;4.20;1.50;;;;;;;;;;5084853;28;20101;-65
2022/06/01 14:15:16;;;;;;;2.38;1.50;;;;;;;;;;5077432;28;20127;-65
2022/06/01 14:17:44;;;;;;;5.85;1.23;;;;;;;;;;5077774;28;20056;-65
2022/06/01 14:20:12;;;;;;;3.08;1.40;;;;;;;;;;5078471;28;20052;-65
2022/06/01 14:22:39;;;;;;;5.25;1.23;;;;;;;;;;5079415;28;20073;-65
2022/06/01 14:30:38;;;;;;;2.88;1.30;;;;;;;;;;5075096;28;20047;-65
2022/06/01 14:33:07;;;;;;;2.08;1.27;;;;;;;;;;5073274;28;20052;-65
2022/06/01 14:35:34;;;;;;;2.83;1.10;;;;;;;;;;5076942;28;20101;-65
2022/06/01 14:38:02;;;;;;;2.55;1.20;;;;;;;;;;5078418;28;20549;-65
2022/06/01 14:40:29;;;;;;;3.03;1.10;;;;;;;;;;5075933;28;20473;-65
2022/06/01 14:42:57;;;;;;;5.00;1.20;;;;;;;;;;5075139;28;20372;-67
2022/06/01 14:45:24;;;;;;;1.92;1.20;;;;;;;;;;5073961;28;20105;-66
2022/06/01 14:47:53;;;;;;;2.42;1.30;;;;;;;;;;5074097;28;20048;-66
2022/06/01 14:50:20;;;;;;;4.50;1.25;;;;;;;;;;5073709;28;20076;-66
2022/06/01 14:52:47;;;;;;;2.00;1.10;;;;;;;;;;5078597;28;20060;-66
2022/06/01 14:55:16;;;;;;;3.75;1.20;;;;;;;;;;5076098;28;20056;-66
2022/06/01 14:57:44;;;;;;;3.42;1.30;;;;;;;;;;5075374;28;20063;-66
2022/06/01 15:00:11;;;;;;;3.80;1.13;;;;;;;;;;5074391;28;20052;-66
2022/06/01 15:02:41;;;;;;;3.50;1.00;;;;;;;;;;5075995;28;20059;-67
2022/06/01 15:05:10;;;;;;;2.70;1.05;;;;;;;;;;5072393;28;20056;-67
2022/06/01 15:07:37;;;;;;;2.45;1.00;;;;;;;;;;5078967;28;20054;-67
2022/06/01 15:10:05;;;;;;;4.35;0.98;;;;;;;;;;5073577;28;20121;-66
2022/06/01 15:12:32;;;;;;;2.17;1.10;;;;;;;;;;5071103;28;20048;-66
2022/06/01 15:15:00;;;;;;;5.85;1.40;;;;;;;;;;5075661;28;20520;-66
2022/06/01 15:17:28;;;;;;;6.10;1.52;;;;;;;;;;5072217;28;20061;-66